Time;durP1;ratioP1;P1;durP2;ratioP2;P2;SDS_P1;SDS_P2;PMS_P1;PMS_P2;Temp;Humidity;BMP_temperature;BMP_pressure;BME280_temperature;BME280_humidity;BME280_pressure;Samples;Min_cycle;Max_cycle;Signal;HPM_P1;HPM_P2
2023/02/11 00:01:02;;;;;;;20.73;6.38;;;6.90;99.90;;;;;;4958669;28;20043;-82
2023/02/11 00:07:43;;;;;;;22.25;5.82;;;6.70;99.90;;;;;;4944877;28;20097;-82
2023/02/11 00:10:45;;;;;;;;;;;;;;;;;;;;;
2023/02/11 00:16:46;;;;;;;21.80;5.55;;;6.70;99.90;;;;;;4922988;29;20758;-82
2023/02/11 00:19:51;;;;;;;22.63;5.57;;;6.90;99.90;;;;;;4941341;28;20042;-82
2023/02/11 00:22:35;;;;;;;24.63;5.40;;;6.70;99.90;;;;;;4948783;28;20046;-82
2023/02/11 00:25:32;;;;;;;24.83;5.82;;;6.70;99.90;;;;;;4988736;28;20097;-82
2023/02/11 00:28:27;;;;;;;25.02;6.05;;;6.60;99.90;;;;;;4992875;28;20058;-82
2023/02/11 00:31:24;;;;;;;21.85;7.63;;;6.80;99.90;;;;;;4985829;28;20466;-83
2023/02/11 00:34:03;;;;;;;21.83;6.55;;;7.00;99.90;;;;;;4974388;28;20086;-82
2023/02/11 00:37:17;;;;;;;27.08;6.40;;;6.90;99.90;;;;;;4989225;28;20043;-83
2023/02/11 00:39:53;;;;;;;23.13;5.85;;;7.30;99.90;;;;;;4954648;28;20701;-84
2023/02/11 00:43:07;;;;;;;26.08;5.72;;;7.20;99.90;;;;;;4977590;28;20150;-82
2023/02/11 00:52:20;;;;;;;;;;;;;;;;;;;;;
2023/02/11 00:55:25;;;;;;;;;;;6.70;99.90;;;;;;4970137;28;20129;-83
2023/02/11 00:58:24;;;;;;;20.48;5.50;;;6.50;99.90;;;;;;4963984;28;19918;-83
2023/02/11 01:01:34;;;;;;;;;;;;;;;;;;;;;
2023/02/11 01:04:29;;;;;;;21.90;5.32;;;6.50;99.90;;;;;;4979733;28;20129;-83
2023/02/11 01:11:40;;;;;;;;;;;;;;;;;;;;;
2023/02/11 01:14:20;;;;;;;23.67;5.40;;;6.30;99.90;;;;;;4875603;29;20285;-83
2023/02/11 01:17:57;;;;;;;;;;;;;;;;;;;;;
2023/02/11 01:21:31;;;;;;;24.00;6.45;;;6.20;99.90;;;;;;4894014;29;20508;-83
2023/02/11 01:32:23;;;;;;;23.65;6.40;;;6.20;99.90;;;;;;4939574;28;20721;-83
2023/02/11 01:38:32;;;;;;;21.42;6.53;;;6.00;99.90;;;;;;4963257;28;20552;-84
2023/02/11 01:41:40;;;;;;;18.88;5.88;;;6.00;99.90;;;;;;4958217;28;20042;-83
2023/02/11 01:49:13;;;;;;;26.67;7.07;;;5.80;99.90;;;;;;4887466;29;20104;-84
2023/02/11 01:52:37;;;;;;;;;;;;;;;;;;;;;
2023/02/11 02:06:04;;;;;;;;;;;;;;;;;;;;;
2023/02/11 02:15:59;;;;;;;29.33;8.15;;;6.10;99.90;;;;;;4971074;28;20062;-83
2023/02/11 02:22:15;;;;;;;29.33;8.07;;;6.20;99.90;;;;;;4937387;28;20050;-83
2023/02/11 02:28:18;;;;;;;25.08;8.38;;;6.10;99.90;;;;;;4942149;28;20094;-84
2023/02/11 02:31:38;;;;;;;26.73;8.93;;;6.00;99.90;;;;;;4988227;28;20038;-83
2023/02/11 02:39:15;;;;;;;;;;;;;;;;;;;;;
2023/02/11 02:49:35;;;;;;;24.65;9.77;;;6.20;99.90;;;;;;4957258;28;20596;-83
2023/02/11 02:52:35;;;;;;;28.33;10.00;;;6.50;99.90;;;;;;4972873;28;20133;-84
2023/02/11 02:55:54;;;;;;;21.75;10.25;;;6.30;99.90;;;;;;4968153;28;20050;-84
2023/02/11 02:59:38;;;;;;;25.67;10.32;;;6.30;99.90;;;;;;4953917;28;20055;-84
2023/02/11 03:06:08;;;;;;;24.73;12.82;;;6.90;99.90;;;;;;4931540;29;20047;-84
2023/02/11 03:09:24;;;;;;;;;;;;;;;;;;;;;
2023/02/11 03:12:53;;;;;;;;;;;;;;;;;;;;;
2023/02/11 03:19:44;;;;;;;27.67;10.82;;;6.50;99.90;;;;;;4846964;29;20064;-84
2023/02/11 03:22:59;;;;;;;;;;;;;;;;;;;;;
2023/02/11 03:29:26;;;;;;;24.80;12.68;;;6.50;99.90;;;;;;4910316;28;20437;-84
2023/02/11 03:39:33;;;;;;;31.25;15.80;;;6.90;99.90;;;;;;4973704;28;20042;-83
2023/02/11 03:54:41;;;;;;;;;;;;;;;;;;;;;
2023/02/11 04:01:40;;;;;;;;;;;;;;;;;;;;;
2023/02/11 04:04:54;;;;;;;31.67;17.50;;;7.00;99.90;;;;;;4810149;29;20055;-84
2023/02/11 04:08:31;;;;;;;;;;;;;;;;;;;;;
2023/02/11 04:12:05;;;;;;;;;;;;;;;;;;;;;
2023/02/11 04:19:08;;;;;;;;;;;;;;;;;;;;;
2023/02/11 05:04:54;;;;;;;41.50;18.05;;;6.80;99.90;;;;;;4539689;26;20044;-84
2023/02/11 05:07:48;;;;;;;29.27;17.63;;;6.80;99.90;;;;;;4920762;29;20066;-84
2023/02/11 05:13:48;;;;;;;35.97;18.60;;;6.20;99.90;;;;;;4922242;29;20046;-83
2023/02/11 05:24:49;;;;;;;;;;;;;;;;;;;;;
2023/02/11 05:32:16;;;;;;;;;;;;;;;;;;;;;
2023/02/11 05:38:52;;;;;;;;;;;;;;;;;;;;;
2023/02/11 05:42:17;;;;;;;;;;;;;;;;;;;;;
2023/02/11 05:45:19;;;;;;;40.25;20.02;;;6.60;99.90;;;;;;4914440;29;20123;-83
2023/02/11 05:52:39;;;;;;;;;;;;;;;;;;;;;
2023/02/11 05:56:03;;;;;;;;;;;;;;;;;;;;;
2023/02/11 05:59:07;;;;;;;36.40;20.70;;;6.60;99.90;;;;;;4879488;29;20586;-83
2023/02/11 06:04:44;;;;;;;36.30;20.95;;;6.20;99.90;;;;;;4900350;29;20047;-83
2023/02/11 06:07:22;;;;;;;39.55;20.80;;;6.50;99.90;;;;;;4907308;29;20485;-83
2023/02/11 06:09:59;;;;;;;38.13;20.90;;;6.50;99.90;;;;;;4903893;29;20043;-83
2023/02/11 06:12:37;;;;;;;38.05;20.98;;;6.90;99.90;;;;;;4922564;29;20165;-83
2023/02/11 06:15:10;;;;;;;47.30;22.23;;;6.60;99.90;;;;;;4922315;29;20048;-83
2023/02/11 06:17:47;;;;;;;37.55;22.75;;;6.50;99.90;;;;;;4909189;29;20051;-83
2023/02/11 06:20:33;;;;;;;42.42;22.45;;;6.50;99.90;;;;;;4926908;29;20080;-83
2023/02/11 06:23:15;;;;;;;46.38;23.20;;;6.30;99.90;;;;;;4939297;29;20062;-82
2023/02/11 06:25:52;;;;;;;42.10;25.48;;;6.50;99.90;;;;;;4904767;29;20034;-83
2023/02/11 06:28:34;;;;;;;46.05;24.30;;;6.50;99.90;;;;;;4903310;29;20051;-83
2023/02/11 06:31:08;;;;;;;49.63;26.02;;;6.50;99.90;;;;;;4917781;29;20429;-82
2023/02/11 06:33:49;;;;;;;50.55;26.60;;;6.50;99.90;;;;;;4901439;29;20040;-83
2023/02/11 06:36:34;;;;;;;;;;;;;;;;;;;;;
2023/02/11 06:39:18;;;;;;;47.28;25.65;;;6.70;99.90;;;;;;4936565;29;20051;-83
2023/02/11 06:41:44;;;;;;;44.13;25.67;;;6.90;99.90;;;;;;4903025;29;20063;-82
2023/02/11 06:44:16;;;;;;;57.63;27.75;;;6.50;99.90;;;;;;4925552;29;20044;-84
2023/02/11 06:46:48;;;;;;;46.08;28.73;;;6.80;99.90;;;;;;4925035;29;20044;-83
2023/02/11 06:49:21;;;;;;;55.30;30.15;;;6.90;99.90;;;;;;4900516;29;20072;-83
2023/02/11 06:51:52;;;;;;;58.25;30.17;;;6.60;99.90;;;;;;4914496;29;20036;-83
2023/02/11 06:54:23;;;;;;;59.17;31.02;;;6.60;99.90;;;;;;4918327;29;20068;-83
2023/02/11 06:56:52;;;;;;;53.40;30.27;;;6.00;99.90;;;;;;4931720;29;20059;-83
2023/02/11 06:59:56;;;;;;;51.13;28.52;;;6.60;99.90;;;;;;4892012;29;20099;-83
2023/02/11 07:06:04;;;;;;;56.00;28.10;;;6.20;99.90;;;;;;4911035;29;20040;-84
2023/02/11 07:09:10;;;;;;;50.92;27.83;;;6.80;99.90;;;;;;4933992;29;20056;-84
2023/02/11 07:11:48;;;;;;;56.35;28.67;;;6.60;99.90;;;;;;4908778;29;20131;-84
2023/02/11 07:14:19;;;;;;;53.75;28.95;;;6.60;99.90;;;;;;4922079;29;20460;-83
2023/02/11 07:16:45;;;;;;;43.70;27.25;;;6.60;99.90;;;;;;4920533;29;20059;-83
2023/02/11 07:19:14;;;;;;;51.72;28.42;;;7.40;99.90;;;;;;4906909;29;20205;-83
2023/02/11 07:21:51;;;;;;;57.55;30.33;;;6.20;99.90;;;;;;4905033;29;20079;-83
2023/02/11 07:24:29;;;;;;;;;;;;;;;;;;;;;
2023/02/11 07:26:58;;;;;;;48.47;28.40;;;6.40;99.90;;;;;;4920267;29;20071;-83
2023/02/11 07:29:24;;;;;;;47.63;27.90;;;6.90;99.90;;;;;;4939845;29;20517;-83
2023/02/11 07:31:50;;;;;;;48.55;27.50;;;7.10;99.90;;;;;;4918467;29;20036;-83
2023/02/11 07:34:24;;;;;;;50.67;28.60;;;6.80;99.90;;;;;;4934038;29;20046;-84
2023/02/11 07:40:48;;;;;;;;;;;;;;;;;;;;;
2023/02/11 07:43:23;;;;;;;45.97;28.30;;;6.80;99.90;;;;;;4925587;29;20418;-84
2023/02/11 07:46:19;;;;;;;46.88;28.15;;;7.10;99.90;;;;;;4908913;29;20513;-84
2023/02/11 07:48:49;;;;;;;51.08;27.45;;;6.90;99.90;;;;;;4944843;29;20549;-84
2023/02/11 07:51:23;;;;;;;42.67;24.92;;;7.00;99.90;;;;;;4918198;29;20043;-84
2023/02/11 07:53:56;;;;;;;45.63;28.50;;;6.80;99.90;;;;;;4898971;29;20499;-82
2023/02/11 07:56:34;;;;;;;49.22;27.67;;;7.00;99.90;;;;;;4913833;29;20040;-82
2023/02/11 07:59:14;;;;;;;47.83;27.30;;;7.30;99.90;;;;;;4904114;29;20064;-86
2023/02/11 08:01:46;;;;;;;47.00;27.42;;;7.00;99.90;;;;;;4902118;29;20063;-84
2023/02/11 08:04:12;;;;;;;46.65;27.02;;;7.00;99.90;;;;;;4917925;29;20075;-84
2023/02/11 08:10:18;;;;;;;45.47;27.17;;;7.20;99.90;;;;;;4889479;29;20418;-85
2023/02/11 08:12:57;;;;;;;;;;;;;;;;;;;;;
2023/02/11 08:54:18;;;;;;;30.50;21.27;;;7.50;99.90;;;;;;5568588;23;20282;-82
2023/02/11 08:56:44;;;;;;;38.90;23.20;;;7.60;99.90;;;;;;4978382;28;20038;-85
2023/02/11 08:59:42;;;;;;;34.20;21.13;;;7.60;99.90;;;;;;4991440;28;20038;-86
2023/02/11 09:03:02;;;;;;;30.08;20.35;;;7.80;99.90;;;;;;4972596;28;20043;-87
2023/02/11 09:05:36;;;;;;;32.67;19.83;;;7.50;99.90;;;;;;5077070;23;20062;-84
2023/02/11 09:08:53;;;;;;;33.70;20.50;;;7.70;99.90;;;;;;4993578;28;20064;-83
2023/02/11 09:20:11;;;;;;;;;;;;;;;;;;;;;
2023/02/11 09:23:01;;;;;;;27.48;18.92;;;8.00;99.90;;;;;;4990434;28;20050;-83
2023/02/11 10:18:21;;;;;;;13.85;9.48;;;8.30;99.90;;;;;;4990944;28;20076;-83
2023/02/11 10:21:34;;;;;;;;;;;;;;;;;;;;;
2023/02/11 10:24:33;;;;;;;15.30;9.25;;;9.00;99.90;;;;;;4983200;28;20050;-85
2023/02/11 10:27:18;;;;;;;15.73;9.77;;;9.20;99.90;;;;;;4969497;28;20053;-83
2023/02/11 10:47:11;;;;;;;10.85;7.47;;;9.30;99.90;;;;;;5562347;23;20070;-83
2023/02/11 10:49:42;;;;;;;13.15;6.95;;;9.60;99.90;;;;;;4949310;28;20035;-82
2023/02/11 10:52:29;;;;;;;15.18;7.38;;;9.70;99.90;;;;;;4949680;29;20078;-83
2023/02/11 10:55:08;;;;;;;14.02;7.68;;;10.20;99.90;;;;;;4926373;28;20047;-84
2023/02/11 11:01:09;;;;;;;10.88;6.50;;;9.70;99.90;;;;;;4967919;28;20038;-82
2023/02/11 11:10:31;;;;;;;14.02;6.57;;;9.80;99.90;;;;;;4944346;29;20138;-82
2023/02/11 11:17:47;;;;;;;10.23;5.97;;;9.80;99.90;;;;;;4794866;29;20054;-81
2023/02/11 11:21:20;;;;;;;11.93;5.75;;;9.20;99.90;;;;;;4800022;29;20050;-84
2023/02/11 11:24:45;;;;;;;11.02;5.78;;;9.90;99.90;;;;;;4887843;29;20091;-81
2023/02/11 11:31:45;;;;;;;;;;;;;;;;;;;;;
2023/02/11 11:35:41;;;;;;;14.52;5.07;;;9.90;99.90;;;;;;4924520;29;20043;-83
2023/02/11 11:39:22;;;;;;;10.35;5.35;;;9.90;99.90;;;;;;4889202;29;20631;-81
2023/02/11 11:46:12;;;;;;;14.73;5.60;;;9.90;99.90;;;;;;4892909;29;20100;-82
2023/02/11 11:49:51;;;;;;;13.38;5.05;;;10.00;99.90;;;;;;4889145;29;20044;-82
2023/02/11 12:00:24;;;;;;;13.73;5.05;;;10.00;99.90;;;;;;4845063;29;20059;-82
2023/02/11 12:02:54;;;;;;;11.02;4.63;;;10.00;99.90;;;;;;4937722;28;20048;-82
2023/02/11 12:06:29;;;;;;;10.27;4.70;;;10.10;99.90;;;;;;4909303;29;20147;-82
2023/02/11 12:10:03;;;;;;;19.63;5.40;;;10.10;99.90;;;;;;4903628;29;20058;-83
2023/02/11 12:13:10;;;;;;;14.57;4.70;;;10.00;99.90;;;;;;4930351;29;20051;-83
2023/02/11 12:16:09;;;;;;;9.88;3.60;;;10.10;99.90;;;;;;4936124;29;20489;-81
2023/02/11 12:19:15;;;;;;;8.77;4.90;;;10.10;99.90;;;;;;4934114;29;20044;-83
2023/02/11 12:22:32;;;;;;;10.00;3.42;;;9.70;99.90;;;;;;4930420;29;20036;-85
2023/02/11 12:57:51;;;;;;;15.55;2.83;;;10.20;99.90;;;;;;5886205;23;19934;-85
2023/02/11 13:08:07;;;;;;;;;;;;;;;;;;;;;
2023/02/11 13:39:22;;;;;;;15.50;2.67;;;10.50;99.90;;;;;;4926765;29;20074;-86
2023/02/11 13:42:14;;;;;;;14.45;3.85;;;10.50;99.90;;;;;;4914839;29;20142;-85
2023/02/11 13:44:42;;;;;;;10.50;1.90;;;10.40;99.90;;;;;;4925855;29;20067;-82
2023/02/11 13:48:05;;;;;;;8.75;3.10;;;10.50;99.90;;;;;;4983377;28;20038;-86
2023/02/11 13:51:10;;;;;;;13.07;2.70;;;10.50;99.90;;;;;;4914753;29;20055;-84
2023/02/11 14:45:23;;;;;;;19.70;4.28;;;10.90;99.90;;;;;;2946546;26;20110;-84
2023/02/11 15:15:00;;;;;;;;;;;;;;;;;;;;;
2023/02/11 15:18:20;;;;;;;11.15;2.45;;;10.30;99.90;;;;;;4892138;29;20581;-82
2023/02/11 15:20:54;;;;;;;15.43;3.90;;;11.00;99.90;;;;;;4854685;29;20136;-83
2023/02/11 15:29:45;;;;;;;9.57;2.15;;;10.10;99.90;;;;;;5661592;23;21027;-82
2023/02/11 15:32:27;;;;;;;12.95;2.05;;;10.10;99.90;;;;;;4944932;28;20051;-80
2023/02/11 15:35:25;;;;;;;11.23;2.55;;;9.60;99.90;;;;;;4943918;28;20521;-81
2023/02/11 15:37:59;;;;;;;11.50;2.33;;;10.00;99.90;;;;;;4942451;28;20054;-81
2023/02/11 15:40:38;;;;;;;14.13;2.17;;;10.00;99.90;;;;;;4932498;29;20051;-82
2023/02/11 15:43:14;;;;;;;17.23;2.90;;;9.90;99.90;;;;;;4936639;28;20054;-84
2023/02/11 15:45:58;;;;;;;15.18;3.28;;;10.40;99.90;;;;;;4930052;29;20746;-83
2023/02/11 15:48:53;;;;;;;20.42;4.20;;;9.90;99.90;;;;;;4949707;28;20054;-82
2023/02/11 15:51:24;;;;;;;11.98;2.67;;;9.90;99.90;;;;;;4918549;28;20051;-81
2023/02/11 15:54:05;;;;;;;13.57;2.72;;;10.60;99.90;;;;;;4929867;29;20053;-84
2023/02/11 15:56:46;;;;;;;9.98;2.15;;;9.80;99.90;;;;;;4947353;28;21634;-82
2023/02/11 15:59:38;;;;;;;14.00;3.28;;;10.00;99.90;;;;;;4917223;28;20162;-81
2023/02/11 16:06:29;;;;;;;10.55;2.25;;;9.70;99.90;;;;;;4945476;28;20344;-82
2023/02/11 16:09:48;;;;;;;12.10;1.98;;;9.60;99.90;;;;;;4921422;29;20524;-83
2023/02/11 16:12:40;;;;;;;13.50;3.40;;;9.50;99.90;;;;;;4927862;29;20082;-81
2023/02/11 16:15:32;;;;;;;12.70;2.20;;;9.50;99.90;;;;;;4919514;29;20429;-81
2023/02/11 16:18:02;;;;;;;13.25;2.63;;;9.50;99.90;;;;;;4929159;29;20058;-81
2023/02/11 16:20:40;;;;;;;;;;;;;;;;;;;;;
2023/02/11 16:23:49;;;;;;;13.73;2.40;;;9.40;99.90;;;;;;4942574;28;20059;-84
2023/02/11 16:26:33;;;;;;;13.10;2.40;;;9.40;99.90;;;;;;4922527;29;20078;-82
2023/02/11 16:29:21;;;;;;;15.20;2.80;;;9.30;99.90;;;;;;4933589;29;20062;-85
2023/02/11 16:31:52;;;;;;;13.60;2.50;;;9.40;99.90;;;;;;4950712;28;20047;-82
2023/02/11 16:34:21;;;;;;;11.43;2.42;;;9.60;99.90;;;;;;4940005;28;20095;-82
2023/02/11 16:36:51;;;;;;;10.75;2.65;;;9.30;99.90;;;;;;4943641;28;20098;-81
2023/02/11 16:39:21;;;;;;;13.05;2.60;;;9.30;99.90;;;;;;4925262;29;21673;-82
2023/02/11 16:41:49;;;;;;;14.98;4.22;;;9.10;99.90;;;;;;4951841;28;20106;-80
2023/02/11 16:44:33;;;;;;;11.63;2.90;;;9.10;99.90;;;;;;4932866;29;20058;-80
2023/02/11 16:47:05;;;;;;;13.32;2.63;;;9.20;99.90;;;;;;4945374;28;20040;-83
2023/02/11 16:49:40;;;;;;;12.05;2.80;;;9.10;99.90;;;;;;4945695;28;20127;-80
2023/02/11 16:52:11;;;;;;;10.55;2.58;;;9.10;99.90;;;;;;4946469;28;20426;-81
2023/02/11 16:55:09;;;;;;;15.05;5.47;;;9.10;99.90;;;;;;4954511;23;20062;-80
2023/02/11 16:57:36;;;;;;;12.27;3.55;;;9.20;99.90;;;;;;4949867;28;20039;-80
2023/02/11 17:00:08;;;;;;;16.15;3.72;;;9.00;99.90;;;;;;4966034;28;20847;-83
2023/02/11 17:02:38;;;;;;;10.55;2.40;;;9.00;99.90;;;;;;4950435;28;20042;-79
2023/02/11 17:05:06;;;;;;;14.30;2.38;;;9.20;99.90;;;;;;4959632;28;20465;-79
2023/02/11 17:07:32;;;;;;;10.50;2.08;;;8.90;99.90;;;;;;4945968;28;20416;-78
2023/02/11 17:09:58;;;;;;;12.68;2.70;;;9.70;99.90;;;;;;4961387;28;20030;-80
2023/02/11 17:12:24;;;;;;;10.20;1.73;;;9.70;99.90;;;;;;4961676;28;20054;-79
2023/02/11 17:14:51;;;;;;;11.43;3.55;;;8.90;99.90;;;;;;4943586;28;20051;-78
2023/02/11 17:17:16;;;;;;;9.95;2.83;;;8.90;99.90;;;;;;4965766;28;20504;-79
2023/02/11 17:19:43;;;;;;;8.35;1.58;;;9.20;99.90;;;;;;4950983;28;20042;-79
2023/02/11 17:22:10;;;;;;;10.75;2.42;;;8.80;99.90;;;;;;4944637;28;20106;-78
2023/02/11 17:24:36;;;;;;;12.48;2.80;;;8.80;99.90;;;;;;4960932;28;20073;-79
2023/02/11 17:27:01;;;;;;;12.73;2.30;;;8.90;99.90;;;;;;4964630;28;20370;-79
2023/02/11 17:29:27;;;;;;;18.05;3.75;;;8.80;99.90;;;;;;4942192;28;20061;-79
2023/02/11 17:31:53;;;;;;;9.45;1.80;;;8.70;99.90;;;;;;4963760;28;20173;-79
2023/02/11 17:34:20;;;;;;;9.38;1.80;;;8.80;99.90;;;;;;4963715;28;20042;-80
2023/02/11 17:36:46;;;;;;;17.90;3.60;;;8.70;99.90;;;;;;4947998;28;20565;-79
2023/02/11 17:39:12;;;;;;;12.48;3.67;;;8.70;99.90;;;;;;4961731;28;20291;-79
2023/02/11 17:41:38;;;;;;;12.23;2.60;;;8.70;99.90;;;;;;4945334;28;20097;-79
2023/02/11 17:44:05;;;;;;;8.90;1.70;;;8.80;99.90;;;;;;4962999;28;20047;-79
2023/02/11 17:46:33;;;;;;;10.90;2.25;;;8.70;99.90;;;;;;4962650;28;20078;-79
2023/02/11 17:48:59;;;;;;;15.07;2.10;;;8.70;99.90;;;;;;4948567;28;20100;-80
2023/02/11 17:51:33;;;;;;;12.63;2.05;;;9.00;99.90;;;;;;4946680;28;20073;-79
2023/02/11 17:54:01;;;;;;;11.07;2.42;;;8.60;99.90;;;;;;4962224;28;20501;-79
2023/02/11 17:56:29;;;;;;;9.45;2.20;;;8.90;99.90;;;;;;4962609;28;20094;-78
2023/02/11 17:58:55;;;;;;;10.85;2.75;;;8.60;99.90;;;;;;4961171;28;20704;-78
2023/02/11 18:01:21;;;;;;;12.25;2.70;;;8.70;99.90;;;;;;4965928;28;20047;-81
2023/02/11 18:03:46;;;;;;;12.70;2.85;;;8.80;99.90;;;;;;4959502;28;20055;-78
2023/02/11 18:06:12;;;;;;;10.18;2.63;;;8.80;99.90;;;;;;4961329;28;20108;-79
2023/02/11 18:08:38;;;;;;;16.23;2.75;;;8.90;99.90;;;;;;4961178;28;20038;-79
2023/02/11 18:11:08;;;;;;;12.65;2.63;;;8.90;99.90;;;;;;4948373;28;20133;-79
2023/02/11 18:13:34;;;;;;;12.23;2.80;;;8.60;99.90;;;;;;4947708;28;20042;-78
2023/02/11 18:16:04;;;;;;;10.60;2.17;;;8.60;99.90;;;;;;4945430;28;20046;-80
2023/02/11 18:18:30;;;;;;;13.80;2.55;;;8.40;99.90;;;;;;4963666;28;20050;-79
2023/02/11 18:20:58;;;;;;;9.23;2.47;;;8.40;99.90;;;;;;4945797;28;20042;-79
2023/02/11 18:23:24;;;;;;;10.40;2.38;;;8.40;99.90;;;;;;4961783;28;20043;-80
2023/02/11 18:25:50;;;;;;;13.05;2.17;;;8.30;99.90;;;;;;4961615;28;20053;-79
2023/02/11 18:28:16;;;;;;;10.90;2.25;;;8.50;99.90;;;;;;4963170;28;20054;-80
2023/02/11 18:30:42;;;;;;;12.23;2.75;;;8.20;99.90;;;;;;4966976;28;20118;-78
2023/02/11 18:33:10;;;;;;;9.70;3.28;;;8.30;99.90;;;;;;4964499;28;20130;-79
2023/02/11 18:35:41;;;;;;;12.48;2.92;;;8.20;99.90;;;;;;4949934;28;20046;-79
2023/02/11 18:38:07;;;;;;;11.50;2.33;;;8.50;99.90;;;;;;4948727;28;20051;-79
2023/02/11 18:40:34;;;;;;;15.85;3.58;;;8.10;99.90;;;;;;4962893;28;20759;-79
2023/02/11 18:43:03;;;;;;;11.00;2.10;;;8.50;99.90;;;;;;4946812;28;20622;-81
2023/02/11 18:45:32;;;;;;;14.00;1.80;;;8.20;99.90;;;;;;4948279;28;20409;-79
2023/02/11 18:48:00;;;;;;;17.42;2.95;;;8.00;99.90;;;;;;4958316;28;20074;-78
2023/02/11 18:50:26;;;;;;;18.95;2.30;;;8.70;99.90;;;;;;4961661;28;20051;-78
2023/02/11 18:52:52;;;;;;;13.27;1.77;;;8.80;99.90;;;;;;4964474;28;20039;-79
2023/02/11 18:55:19;;;;;;;9.10;1.80;;;8.50;99.90;;;;;;4965313;28;20053;-79
2023/02/11 18:57:45;;;;;;;11.95;2.28;;;8.10;99.90;;;;;;4967350;28;20122;-78
2023/02/11 19:00:11;;;;;;;13.02;2.25;;;8.20;99.90;;;;;;4949103;28;20047;-79
2023/02/11 19:02:37;;;;;;;12.00;1.90;;;8.10;99.90;;;;;;4963584;28;20043;-79
2023/02/11 19:05:06;;;;;;;9.68;1.90;;;8.70;99.90;;;;;;4962661;28;20053;-79
2023/02/11 19:07:32;;;;;;;12.68;2.53;;;8.00;99.90;;;;;;4950747;28;20046;-79
2023/02/11 19:09:58;;;;;;;9.20;1.92;;;8.00;99.90;;;;;;4966477;28;20032;-79
2023/02/11 19:12:28;;;;;;;13.85;2.10;;;8.20;99.90;;;;;;4968652;28;20039;-79
2023/02/11 19:14:56;;;;;;;13.93;3.25;;;8.00;99.90;;;;;;4950794;28;20048;-79
2023/02/11 19:17:25;;;;;;;11.57;1.90;;;8.00;99.90;;;;;;4964672;28;20117;-79
2023/02/11 19:19:51;;;;;;;19.23;3.30;;;8.00;99.90;;;;;;4966091;28;20034;-79
2023/02/11 19:22:20;;;;;;;16.33;2.30;;;8.30;99.90;;;;;;4964108;28;20054;-79
2023/02/11 19:24:45;;;;;;;16.35;3.75;;;7.90;99.90;;;;;;4960970;28;20039;-78
2023/02/11 19:27:11;;;;;;;9.90;2.30;;;7.80;99.90;;;;;;4957971;28;20046;-80
2023/02/11 19:29:37;;;;;;;15.23;2.40;;;7.80;99.90;;;;;;4964842;28;20053;-80
2023/02/11 19:32:07;;;;;;;13.48;3.55;;;7.90;99.90;;;;;;4944843;28;21066;-80
2023/02/11 19:34:39;;;;;;;14.57;2.40;;;7.70;99.90;;;;;;4961165;28;20074;-79
2023/02/11 19:37:05;;;;;;;11.52;2.67;;;7.70;99.90;;;;;;4946370;28;21303;-80
2023/02/11 19:39:32;;;;;;;10.52;2.55;;;7.60;99.90;;;;;;4960391;28;20051;-80
2023/02/11 19:41:58;;;;;;;11.13;2.70;;;7.70;99.90;;;;;;4950438;28;20050;-80
2023/02/11 19:44:24;;;;;;;7.75;1.80;;;7.50;99.90;;;;;;4961185;28;20055;-80
2023/02/11 19:46:52;;;;;;;13.93;2.58;;;7.70;99.90;;;;;;4947880;28;20043;-79
2023/02/11 19:49:21;;;;;;;8.75;2.08;;;7.20;99.90;;;;;;4961271;28;21617;-78
2023/02/11 19:51:52;;;;;;;11.38;2.95;;;7.20;99.90;;;;;;4946900;28;20045;-78
2023/02/11 19:54:19;;;;;;;13.57;2.38;;;7.10;99.90;;;;;;4963274;28;20070;-80
2023/02/11 19:56:46;;;;;;;20.48;2.70;;;7.80;99.90;;;;;;4966970;28;20043;-80
2023/02/11 19:59:13;;;;;;;11.27;2.92;;;7.30;99.90;;;;;;4946674;28;20058;-80
2023/02/11 20:01:39;;;;;;;16.40;2.45;;;7.40;99.90;;;;;;4950116;28;20038;-80
2023/02/11 20:04:07;;;;;;;10.63;2.95;;;7.80;99.90;;;;;;4946229;28;20047;-81
2023/02/11 20:06:35;;;;;;;12.93;3.28;;;6.80;99.90;;;;;;4962589;28;20062;-80
2023/02/11 20:09:05;;;;;;;15.80;3.80;;;7.10;99.90;;;;;;4962173;28;20089;-80
2023/02/11 20:11:34;;;;;;;13.23;2.42;;;6.90;99.90;;;;;;4947003;28;20051;-80
2023/02/11 20:14:00;;;;;;;18.85;3.45;;;7.00;99.90;;;;;;4964286;28;20114;-81
2023/02/11 20:16:30;;;;;;;10.45;2.53;;;6.90;99.90;;;;;;4965081;28;20098;-81
2023/02/11 20:18:57;;;;;;;9.82;2.35;;;7.30;99.90;;;;;;4949448;28;20042;-81
2023/02/11 20:21:27;;;;;;;18.25;3.38;;;6.90;99.90;;;;;;4946757;28;20121;-81
2023/02/11 20:24:00;;;;;;;10.13;2.38;;;7.00;99.90;;;;;;4948529;28;20046;-82
2023/02/11 20:26:28;;;;;;;10.18;2.75;;;6.60;99.90;;;;;;4947625;28;20498;-80
2023/02/11 20:29:02;;;;;;;15.30;2.75;;;6.70;99.90;;;;;;4948883;28;20035;-81
2023/02/11 20:31:31;;;;;;;11.27;2.85;;;6.80;99.90;;;;;;4979997;28;20492;-80
2023/02/11 20:34:02;;;;;;;15.00;3.25;;;6.40;99.90;;;;;;4969362;28;20039;-81
2023/02/11 20:36:34;;;;;;;18.30;3.25;;;6.40;99.90;;;;;;4949001;28;20057;-81
2023/02/11 20:39:01;;;;;;;10.50;2.97;;;6.40;99.90;;;;;;4950255;28;20042;-81
2023/02/11 20:41:35;;;;;;;14.73;3.10;;;6.40;99.90;;;;;;4967646;28;20043;-81
2023/02/11 20:44:06;;;;;;;12.48;3.10;;;6.30;99.90;;;;;;4949757;28;20042;-80
2023/02/11 20:46:33;;;;;;;12.80;2.90;;;6.30;99.90;;;;;;4947939;28;21635;-79
2023/02/11 20:49:00;;;;;;;11.23;3.80;;;6.60;99.90;;;;;;4970645;28;20074;-79
2023/02/11 20:51:29;;;;;;;9.77;2.58;;;6.60;99.90;;;;;;4949788;28;20047;-80
2023/02/11 20:53:55;;;;;;;7.75;2.20;;;6.50;99.90;;;;;;4967716;28;20085;-80
2023/02/11 20:56:23;;;;;;;13.00;2.60;;;6.10;99.90;;;;;;4948619;28;20533;-80
2023/02/11 20:58:50;;;;;;;10.45;2.97;;;6.80;99.90;;;;;;4966632;28;20063;-80
2023/02/11 21:01:18;;;;;;;15.15;3.67;;;6.30;99.90;;;;;;4949941;28;20047;-80
2023/02/11 21:03:53;;;;;;;19.13;3.75;;;6.10;99.90;;;;;;4963550;28;20067;-80
2023/02/11 21:06:21;;;;;;;10.35;3.13;;;6.00;99.90;;;;;;4966241;28;20074;-80
2023/02/11 21:08:47;;;;;;;12.05;3.08;;;6.20;99.90;;;;;;4948901;28;20055;-81
2023/02/11 21:11:13;;;;;;;8.90;4.00;;;6.10;99.90;;;;;;4952613;28;20078;-80
2023/02/11 21:13:41;;;;;;;18.27;4.32;;;6.10;99.90;;;;;;4963547;28;20043;-80
2023/02/11 21:16:10;;;;;;;11.07;4.28;;;6.00;99.90;;;;;;4953359;28;20038;-80
2023/02/11 21:18:36;;;;;;;13.55;4.35;;;6.10;99.90;;;;;;4953923;28;20108;-80
2023/02/11 21:21:02;;;;;;;13.45;4.75;;;6.70;99.90;;;;;;4950615;28;20107;-80
2023/02/11 21:23:28;;;;;;;13.73;5.28;;;5.90;99.90;;;;;;4944843;28;20705;-80
2023/02/11 21:25:54;;;;;;;12.52;4.90;;;6.30;99.90;;;;;;4969438;28;20043;-80
2023/02/11 21:28:24;;;;;;;14.85;5.30;;;6.20;99.90;;;;;;4969322;28;20069;-80
2023/02/11 21:30:55;;;;;;;18.85;6.05;;;6.20;99.90;;;;;;4951442;28;20074;-81
2023/02/11 21:33:22;;;;;;;20.05;5.93;;;5.90;99.90;;;;;;4966549;28;20035;-80
2023/02/11 21:35:49;;;;;;;17.55;5.72;;;6.00;99.90;;;;;;4951891;28;20039;-80
2023/02/11 21:38:15;;;;;;;13.95;5.63;;;6.00;99.90;;;;;;4952667;28;20053;-80
2023/02/11 21:40:41;;;;;;;16.23;5.63;;;6.00;99.90;;;;;;4969276;28;20051;-80
2023/02/11 21:43:07;;;;;;;20.70;5.70;;;6.10;99.90;;;;;;4950538;28;20046;-80
2023/02/11 21:45:45;;;;;;;14.93;5.25;;;6.00;99.90;;;;;;4951723;28;20425;-81
2023/02/11 21:48:13;;;;;;;16.48;5.88;;;6.00;99.90;;;;;;4983723;28;20085;-81
2023/02/11 21:50:47;;;;;;;16.38;5.13;;;6.30;99.90;;;;;;4960557;28;20781;-81
2023/02/11 21:53:16;;;;;;;17.05;5.53;;;6.50;99.90;;;;;;4953753;28;20038;-80
2023/02/11 21:55:44;;;;;;;16.88;6.00;;;6.10;99.90;;;;;;4965201;28;20808;-80
2023/02/11 21:58:14;;;;;;;15.10;5.38;;;6.10;99.90;;;;;;4968128;28;20548;-80
2023/02/11 22:00:40;;;;;;;16.92;7.07;;;6.50;99.90;;;;;;4952024;28;20064;-80
2023/02/11 22:03:14;;;;;;;17.30;6.30;;;5.90;99.90;;;;;;4953486;28;20062;-81
2023/02/11 22:05:44;;;;;;;18.60;6.80;;;6.60;99.90;;;;;;4950597;28;20065;-80
2023/02/11 22:08:14;;;;;;;18.98;7.47;;;6.20;99.90;;;;;;4949051;28;20046;-82
2023/02/11 22:10:40;;;;;;;19.55;6.85;;;6.30;99.90;;;;;;4968671;28;20054;-82
2023/02/11 22:13:07;;;;;;;17.88;7.10;;;6.90;99.90;;;;;;4947523;28;20042;-82
2023/02/11 22:15:33;;;;;;;24.10;7.68;;;6.70;99.90;;;;;;4948878;28;20046;-82
2023/02/11 22:18:02;;;;;;;18.20;6.65;;;6.30;99.90;;;;;;4950090;28;20035;-82
2023/02/11 22:20:29;;;;;;;18.63;7.90;;;6.40;99.90;;;;;;4953030;28;20046;-82
2023/02/11 22:22:55;;;;;;;13.00;7.50;;;7.00;99.90;;;;;;4966145;28;20113;-83
2023/02/11 22:25:24;;;;;;;21.48;8.48;;;6.10;99.90;;;;;;4967477;28;20053;-82
2023/02/11 22:27:51;;;;;;;15.07;7.45;;;6.60;99.90;;;;;;4964848;28;20050;-83
2023/02/11 22:30:17;;;;;;;21.95;7.70;;;6.50;99.90;;;;;;4953037;28;20832;-82
2023/02/11 22:32:47;;;;;;;18.83;7.10;;;6.40;99.90;;;;;;4948229;28;20083;-83
2023/02/11 22:35:19;;;;;;;16.38;6.90;;;6.40;99.90;;;;;;4951654;28;20128;-83
2023/02/11 22:37:45;;;;;;;17.05;7.35;;;6.50;99.90;;;;;;4951801;28;20593;-81
2023/02/11 22:40:11;;;;;;;19.13;7.28;;;5.90;99.90;;;;;;4953247;28;20039;-82
2023/02/11 22:42:37;;;;;;;14.02;6.97;;;6.40;99.90;;;;;;4954585;28;20042;-84
2023/02/11 22:45:03;;;;;;;10.90;6.55;;;6.40;99.90;;;;;;4951169;28;20137;-84
2023/02/11 22:47:29;;;;;;;16.65;6.85;;;6.30;99.90;;;;;;4971149;28;20035;-83
2023/02/11 22:49:55;;;;;;;18.67;7.93;;;6.90;99.90;;;;;;4967246;28;20034;-83